Allin, Illinois
Current Conditions -  °F | °C
As of 4:56 AM on Wednesday 26 Nov 2014 (Local Time) from KBMI Reporting Station
Clear Clear  
Wind Chill: 12°   Ceiling: Unl
Heat Index: 21°   Visibility: 8mi
Dew Point: 20°   Wind: 7mph
Humidity: 96%   Direction: 140°SE
Pressure: 30.12"   Gusts: NA
Location:  40.4427°N, 89.2086°W
Report Text: KBMI 261056Z AUTO 14006KT 8SM CLR M06/M07 A3012 RMK AO2 T10611066 SLP220
Loading
Personal Weather Stations






























Interactive Weather Map New forecast layout! Learn more

10-Day Weather Forecast

Advertisements
Track Severe Weather on mobile